Time;durP1;ratioP1;P1;durP2;ratioP2;P2;SDS_P1;SDS_P2;PMS_P1;PMS_P2;Temp;Humidity;BMP_temperature;BMP_pressure;BME280_temperature;BME280_humidity;BME280_pressure;Samples;Min_cycle;Max_cycle;Signal;HPM_P1;HPM_P2
2022/09/17 00:00:57;;;;;;;17.67;3.17;;;10.30;99.90;;;;;;5098969;28;20059;-66
2022/09/17 00:03:24;;;;;;;20.48;2.67;;;10.20;99.90;;;;;;5098074;28;20503;-66
2022/09/17 00:05:59;;;;;;;22.83;3.05;;;10.20;99.90;;;;;;5104589;28;20546;-66
2022/09/17 00:08:25;;;;;;;24.65;3.28;;;10.10;99.90;;;;;;5092228;28;20036;-66
2022/09/17 00:10:50;;;;;;;24.88;3.15;;;10.20;99.90;;;;;;5092290;28;20097;-66
2022/09/17 00:13:16;;;;;;;22.00;3.38;;;10.10;99.90;;;;;;5092088;28;20056;-66
2022/09/17 00:15:43;;;;;;;23.65;3.47;;;10.00;99.90;;;;;;5096553;28;20092;-66
2022/09/17 00:18:10;;;;;;;23.77;2.78;;;10.00;99.90;;;;;;5103270;28;20048;-66
2022/09/17 00:20:41;;;;;;;20.65;4.30;;;9.90;99.90;;;;;;5092884;28;20043;-66
2022/09/17 00:23:07;;;;;;;17.77;2.83;;;9.90;99.90;;;;;;5086598;28;20071;-66
2022/09/17 00:25:33;;;;;;;23.17;3.78;;;9.90;99.90;;;;;;5087553;28;20134;-66
2022/09/17 00:27:59;;;;;;;24.15;4.20;;;9.90;99.90;;;;;;5097653;28;20047;-66
2022/09/17 00:30:25;;;;;;;23.23;4.32;;;9.90;99.90;;;;;;5086975;28;20049;-66
2022/09/17 00:32:52;;;;;;;21.00;3.40;;;9.90;99.90;;;;;;5091302;28;20052;-66
2022/09/17 00:35:18;;;;;;;16.38;2.83;;;9.80;99.90;;;;;;5072270;28;20038;-66
2022/09/17 00:37:43;;;;;;;18.02;3.35;;;9.90;99.90;;;;;;5093432;28;20051;-66
2022/09/17 00:40:09;;;;;;;16.67;3.33;;;9.80;99.90;;;;;;5099628;28;20124;-66
2022/09/17 00:42:35;;;;;;;20.73;3.05;;;9.80;99.90;;;;;;5087101;28;20048;-66
2022/09/17 00:45:01;;;;;;;21.33;3.15;;;9.70;99.90;;;;;;5085028;28;20079;-66
2022/09/17 00:47:36;;;;;;;24.20;2.33;;;9.70;99.90;;;;;;5091827;28;20059;-66
2022/09/17 00:50:07;;;;;;;20.15;3.55;;;9.60;99.90;;;;;;5097364;28;20083;-66
2022/09/17 00:52:38;;;;;;;18.30;2.78;;;9.70;99.90;;;;;;5087969;28;20047;-66
2022/09/17 00:55:23;;;;;;;19.67;2.75;;;9.60;99.90;;;;;;5089580;28;20052;-66
2022/09/17 00:57:52;;;;;;;20.73;2.70;;;9.70;99.90;;;;;;5091784;28;20100;-66
2022/09/17 01:00:18;;;;;;;15.50;2.10;;;9.80;99.90;;;;;;5100209;28;20060;-67
2022/09/17 01:02:44;;;;;;;17.15;2.83;;;9.70;99.90;;;;;;5089779;28;20104;-66
2022/09/17 01:05:11;;;;;;;20.50;3.10;;;9.90;99.90;;;;;;5086949;28;20048;-66
2022/09/17 01:07:57;;;;;;;17.50;2.85;;;9.90;99.90;;;;;;5069967;28;20048;-66
2022/09/17 01:10:29;;;;;;;15.93;2.63;;;10.00;99.90;;;;;;5092737;28;20043;-66
2022/09/17 01:13:19;;;;;;;14.60;2.10;;;10.00;99.90;;;;;;5090281;28;20067;-67
2022/09/17 01:15:57;;;;;;;15.25;3.05;;;10.10;99.90;;;;;;5089684;28;20048;-66
2022/09/17 01:18:38;;;;;;;9.25;2.08;;;10.10;99.90;;;;;;5092229;28;20040;-66
2022/09/17 01:21:31;;;;;;;9.60;1.98;;;10.10;99.90;;;;;;5086317;28;20048;-66
2022/09/17 01:24:21;;;;;;;15.20;2.72;;;10.00;99.90;;;;;;5087421;28;20108;-66
2022/09/17 01:27:11;;;;;;;13.40;1.90;;;10.00;99.90;;;;;;5090436;28;20086;-66
2022/09/17 01:29:58;;;;;;;14.07;2.75;;;9.90;99.90;;;;;;5098598;28;20101;-67
2022/09/17 01:32:45;;;;;;;13.27;2.40;;;10.00;99.90;;;;;;5090892;28;20044;-66
2022/09/17 01:35:25;;;;;;;15.25;2.20;;;9.90;99.90;;;;;;5091480;28;20098;-66
2022/09/17 01:37:50;;;;;;;;;;;9.90;99.90;;;;;;5101601;28;20063;-66
2022/09/17 01:40:27;;;;;;;12.90;2.38;;;9.90;99.90;;;;;;5094224;28;19924;-66
2022/09/17 01:43:00;;;;;;;10.85;1.83;;;9.80;99.90;;;;;;5095413;28;20052;-66
2022/09/17 01:45:43;;;;;;;15.65;3.47;;;9.70;99.90;;;;;;5101009;28;20039;-66
2022/09/17 01:48:19;;;;;;;19.70;3.58;;;9.70;99.90;;;;;;5091415;28;20078;-66
2022/09/17 01:50:53;;;;;;;18.13;2.35;;;9.60;99.90;;;;;;5087441;28;20070;-66
2022/09/17 01:53:24;;;;;;;12.95;2.35;;;9.50;99.90;;;;;;5090605;28;20044;-66
2022/09/17 01:55:53;;;;;;;16.30;2.58;;;9.50;99.90;;;;;;5075450;28;20045;-66
2022/09/17 01:58:26;;;;;;;20.98;3.03;;;9.50;99.90;;;;;;5098414;28;20052;-66
2022/09/17 02:00:57;;;;;;;17.90;2.83;;;9.50;99.90;;;;;;5086637;28;20040;-66
2022/09/17 02:03:39;;;;;;;16.65;2.35;;;9.50;99.90;;;;;;5095888;28;20109;-67
2022/09/17 02:06:17;;;;;;;17.42;3.25;;;9.50;99.90;;;;;;5087665;28;20045;-66
2022/09/17 02:08:49;;;;;;;21.15;2.92;;;9.60;99.90;;;;;;5098351;28;20078;-66
2022/09/17 02:11:16;;;;;;;14.60;2.15;;;9.50;99.90;;;;;;5086228;28;20044;-66
2022/09/17 02:13:53;;;;;;;20.00;2.88;;;9.50;99.90;;;;;;5091123;28;20049;-66
2022/09/17 02:16:26;;;;;;;11.68;2.08;;;9.40;99.90;;;;;;5084365;28;20048;-66
2022/09/17 02:19:01;;;;;;;14.30;2.20;;;9.40;99.90;;;;;;5084697;28;20049;-66
2022/09/17 02:21:37;;;;;;;11.20;2.38;;;9.40;99.90;;;;;;5085268;28;20044;-66
2022/09/17 02:24:22;;;;;;;14.88;2.33;;;9.40;99.90;;;;;;5103579;28;20048;-66
2022/09/17 02:27:09;;;;;;;12.57;2.35;;;9.30;99.90;;;;;;5099751;28;20119;-66
2022/09/17 02:29:42;;;;;;;13.23;1.92;;;9.30;99.90;;;;;;5096092;28;20048;-66
2022/09/17 02:32:09;;;;;;;11.55;1.95;;;9.30;99.90;;;;;;5099396;28;20083;-66
2022/09/17 02:34:35;;;;;;;16.77;3.33;;;9.20;99.90;;;;;;5084193;28;20041;-66
2022/09/17 02:37:02;;;;;;;15.60;2.55;;;9.30;99.90;;;;;;5099087;28;20040;-66
2022/09/17 02:39:28;;;;;;;12.77;2.25;;;9.20;99.90;;;;;;5096300;28;20041;-66
2022/09/17 02:42:32;;;;;;;17.13;2.80;;;9.20;99.90;;;;;;5090084;28;20050;-66
2022/09/17 02:45:27;;;;;;;13.27;2.20;;;9.20;99.90;;;;;;5087926;28;20539;-66
2022/09/17 02:48:20;;;;;;;13.88;2.25;;;9.10;99.90;;;;;;5023559;28;20053;-66
2022/09/17 02:51:11;;;;;;;18.88;2.35;;;9.10;99.90;;;;;;5020631;28;20049;-67
2022/09/17 02:54:01;;;;;;;16.80;2.90;;;9.20;99.90;;;;;;5025739;28;20080;-66
2022/09/17 02:56:53;;;;;;;18.95;2.67;;;9.20;99.90;;;;;;5021328;28;20053;-66
2022/09/17 02:59:28;;;;;;;17.38;2.25;;;9.20;99.90;;;;;;5035251;28;20061;-66
2022/09/17 03:02:03;;;;;;;11.88;2.30;;;9.30;99.90;;;;;;5041720;28;20049;-66
2022/09/17 03:04:30;;;;;;;14.48;2.17;;;9.40;99.90;;;;;;5024201;28;20053;-66
2022/09/17 03:06:58;;;;;;;16.33;2.50;;;9.50;99.90;;;;;;5039652;28;20041;-66
2022/09/17 03:09:24;;;;;;;16.63;2.95;;;9.50;99.90;;;;;;5039481;28;20093;-66
2022/09/17 03:11:50;;;;;;;16.48;3.17;;;9.60;99.90;;;;;;5039396;28;20068;-66
2022/09/17 03:14:16;;;;;;;14.02;2.20;;;9.50;99.90;;;;;;5023816;28;20111;-66
2022/09/17 03:16:41;;;;;;;15.10;2.08;;;9.60;99.90;;;;;;5038196;28;20069;-66
2022/09/17 03:19:07;;;;;;;16.83;2.28;;;9.50;99.90;;;;;;4998675;28;20050;-66
2022/09/17 03:21:33;;;;;;;14.88;2.00;;;9.50;99.90;;;;;;5040958;28;20041;-66
2022/09/17 03:23:59;;;;;;;16.25;3.25;;;9.50;99.90;;;;;;5054753;28;20161;-66
2022/09/17 03:26:26;;;;;;;10.27;2.58;;;9.40;99.90;;;;;;5084507;28;20100;-66
2022/09/17 03:28:51;;;;;;;15.95;2.22;;;9.40;99.90;;;;;;5090275;28;20048;-66
2022/09/17 03:31:17;;;;;;;12.18;2.50;;;9.40;99.90;;;;;;5103622;28;20078;-66
2022/09/17 03:33:42;;;;;;;17.92;2.53;;;9.50;99.90;;;;;;5099280;28;20055;-66
2022/09/17 03:36:08;;;;;;;14.60;2.35;;;9.40;99.90;;;;;;5100828;28;20120;-66
2022/09/17 03:38:34;;;;;;;15.95;2.85;;;9.40;99.90;;;;;;5091373;28;20473;-66
2022/09/17 03:41:02;;;;;;;19.13;3.67;;;9.40;99.90;;;;;;5097366;28;20044;-66
2022/09/17 03:43:28;;;;;;;14.95;2.30;;;9.40;99.90;;;;;;5094365;28;20044;-66
2022/09/17 03:45:54;;;;;;;14.40;2.55;;;9.30;99.90;;;;;;5087545;28;20106;-66
2022/09/17 03:48:21;;;;;;;12.32;2.45;;;9.40;99.90;;;;;;5097742;28;20056;-66
2022/09/17 03:50:46;;;;;;;17.90;2.63;;;9.30;99.90;;;;;;5097248;28;20045;-66
2022/09/17 03:53:12;;;;;;;15.60;2.58;;;9.30;99.90;;;;;;5094385;28;20055;-66
2022/09/17 03:55:38;;;;;;;11.10;2.20;;;9.30;99.90;;;;;;5105780;28;20046;-66
2022/09/17 03:58:04;;;;;;;20.23;2.67;;;9.30;99.90;;;;;;5093364;28;20052;-66
2022/09/17 04:00:30;;;;;;;16.65;3.05;;;9.20;99.90;;;;;;5098679;28;20040;-66
2022/09/17 04:02:56;;;;;;;16.10;2.95;;;9.30;99.90;;;;;;5102636;28;20051;-67
2022/09/17 04:05:22;;;;;;;12.82;2.67;;;9.30;99.90;;;;;;5071538;28;20047;-66
2022/09/17 04:07:48;;;;;;;12.15;2.15;;;9.60;99.90;;;;;;5095077;28;20044;-66
2022/09/17 04:10:14;;;;;;;11.90;2.20;;;9.70;99.90;;;;;;5094108;28;20044;-66
2022/09/17 04:12:39;;;;;;;8.50;1.65;;;9.80;99.90;;;;;;5090029;28;20064;-66
2022/09/17 04:15:06;;;;;;;6.60;1.42;;;9.90;99.90;;;;;;5095096;28;20051;-66
2022/09/17 04:17:31;;;;;;;6.10;1.50;;;9.80;99.90;;;;;;5087563;28;20043;-66
2022/09/17 04:19:58;;;;;;;7.78;1.50;;;9.90;99.90;;;;;;5091459;28;20045;-66
2022/09/17 04:22:24;;;;;;;14.23;2.00;;;9.90;99.90;;;;;;5087064;28;20078;-66
2022/09/17 04:24:50;;;;;;;10.82;1.90;;;9.80;99.90;;;;;;5092238;28;20502;-66
2022/09/17 04:27:16;;;;;;;14.45;2.97;;;9.70;99.90;;;;;;5088480;28;20047;-66
2022/09/17 04:29:41;;;;;;;12.93;2.03;;;9.60;99.90;;;;;;5090790;28;20049;-67
2022/09/17 04:32:07;;;;;;;12.68;1.95;;;9.60;99.90;;;;;;5089769;28;20051;-66
2022/09/17 04:34:33;;;;;;;12.15;2.70;;;9.40;99.90;;;;;;5078022;28;20068;-66
2022/09/17 04:36:59;;;;;;;16.20;2.22;;;9.40;99.90;;;;;;5095876;28;20055;-66
2022/09/17 04:39:25;;;;;;;11.02;1.95;;;9.40;99.90;;;;;;5100346;28;20043;-66
2022/09/17 04:41:50;;;;;;;13.15;1.88;;;9.30;99.90;;;;;;5093035;28;20131;-66
2022/09/17 04:44:16;;;;;;;13.40;2.35;;;9.30;99.90;;;;;;5086260;28;20044;-66
2022/09/17 04:46:42;;;;;;;12.98;2.45;;;9.20;99.90;;;;;;5077527;28;20052;-66
2022/09/17 04:49:07;;;;;;;16.58;2.30;;;9.20;99.90;;;;;;5086411;28;20128;-67
2022/09/17 04:51:33;;;;;;;14.43;1.98;;;9.20;99.90;;;;;;5087619;28;20056;-66
2022/09/17 04:53:59;;;;;;;8.85;1.67;;;9.10;99.90;;;;;;5102549;28;20099;-66
2022/09/17 04:56:25;;;;;;;9.35;1.60;;;9.10;99.90;;;;;;5100554;28;20052;-66
2022/09/17 04:58:50;;;;;;;12.88;2.63;;;9.20;99.90;;;;;;5087693;28;20051;-66
2022/09/17 05:01:17;;;;;;;11.52;1.88;;;9.10;99.90;;;;;;5093921;28;20040;-66
2022/09/17 05:03:44;;;;;;;11.32;1.65;;;9.00;99.90;;;;;;5096225;28;20132;-66
2022/09/17 05:06:10;;;;;;;11.60;2.25;;;9.10;99.90;;;;;;5099115;28;20065;-66
2022/09/17 05:08:36;;;;;;;8.20;1.77;;;9.10;99.90;;;;;;5087027;28;20045;-66
2022/09/17 05:11:02;;;;;;;11.20;2.05;;;9.20;99.90;;;;;;5096473;28;20076;-66
2022/09/17 05:13:28;;;;;;;10.30;1.92;;;9.10;99.90;;;;;;5100505;28;20039;-66
2022/09/17 05:15:56;;;;;;;9.77;2.15;;;9.00;99.90;;;;;;5099316;28;20048;-66
2022/09/17 05:18:23;;;;;;;13.75;1.90;;;9.00;99.90;;;;;;5098610;28;20087;-66
2022/09/17 05:20:48;;;;;;;11.45;2.15;;;9.00;99.90;;;;;;5091480;28;20049;-66
2022/09/17 05:23:14;;;;;;;10.30;1.77;;;9.00;99.90;;;;;;5095499;28;20048;-66
2022/09/17 05:25:40;;;;;;;12.48;1.55;;;9.00;99.90;;;;;;5095416;28;20140;-66
2022/09/17 05:28:06;;;;;;;10.30;1.90;;;9.00;99.90;;;;;;5094614;28;20068;-66
2022/09/17 05:30:32;;;;;;;11.63;1.83;;;9.00;99.90;;;;;;5103554;28;20063;-66
2022/09/17 05:33:03;;;;;;;9.30;1.83;;;9.00;99.90;;;;;;5093608;28;20048;-66
2022/09/17 05:35:30;;;;;;;10.88;1.80;;;9.00;99.90;;;;;;5095221;28;20120;-66
2022/09/17 05:38:01;;;;;;;9.35;1.40;;;9.00;99.90;;;;;;5096972;28;20064;-66
2022/09/17 05:40:27;;;;;;;10.77;1.80;;;9.00;99.90;;;;;;5090425;28;20040;-66
2022/09/17 05:42:58;;;;;;;13.70;1.63;;;9.00;99.90;;;;;;5088022;28;20089;-66
2022/09/17 05:45:24;;;;;;;15.90;2.15;;;9.10;99.90;;;;;;5103287;28;20397;-66
2022/09/17 05:47:57;;;;;;;10.57;1.60;;;9.10;99.90;;;;;;5087874;28;20056;-66
2022/09/17 05:50:24;;;;;;;9.48;3.05;;;9.20;99.90;;;;;;5085469;28;20404;-66
2022/09/17 05:52:51;;;;;;;7.85;1.83;;;9.30;99.90;;;;;;5091389;28;20108;-66
2022/09/17 05:55:17;;;;;;;12.27;1.95;;;9.30;99.90;;;;;;5090484;28;20045;-66
2022/09/17 05:57:43;;;;;;;15.70;2.20;;;9.40;99.90;;;;;;5091487;28;20044;-66
2022/09/17 06:00:10;;;;;;;18.02;2.60;;;9.50;99.90;;;;;;5088592;28;20052;-66
2022/09/17 06:02:36;;;;;;;13.80;2.47;;;9.70;99.90;;;;;;5087760;28;20488;-66
2022/09/17 06:05:03;;;;;;;14.70;2.08;;;9.80;99.90;;;;;;5085521;28;20051;-67
2022/09/17 06:07:29;;;;;;;8.93;1.60;;;9.90;99.90;;;;;;5087266;28;20589;-66
2022/09/17 06:09:55;;;;;;;13.25;2.40;;;10.10;99.90;;;;;;5089246;28;20044;-67
2022/09/17 06:12:21;;;;;;;14.23;1.92;;;10.30;99.90;;;;;;5102652;28;20050;-66
2022/09/17 06:14:47;;;;;;;11.73;2.00;;;10.40;99.90;;;;;;5093756;28;20048;-66
2022/09/17 06:17:12;;;;;;;14.50;2.75;;;10.60;99.90;;;;;;5089961;28;20047;-66
2022/09/17 06:19:38;;;;;;;9.10;1.40;;;10.50;99.90;;;;;;5098225;28;20109;-66
2022/09/17 06:22:04;;;;;;;12.07;2.72;;;10.50;99.90;;;;;;5085316;28;20043;-66
2022/09/17 06:24:31;;;;;;;9.07;1.95;;;10.40;99.90;;;;;;5095124;28;20044;-66
2022/09/17 06:26:57;;;;;;;10.90;1.50;;;10.40;99.90;;;;;;5086941;28;20104;-66
2022/09/17 06:29:23;;;;;;;7.35;2.08;;;10.40;99.90;;;;;;5084324;28;20052;-66
2022/09/17 06:31:49;;;;;;;9.32;1.40;;;10.30;99.90;;;;;;5083373;28;20385;-66
2022/09/17 06:34:15;;;;;;;10.93;1.80;;;10.40;99.90;;;;;;5086198;28;20076;-66
2022/09/17 06:36:41;;;;;;;10.80;2.03;;;10.30;99.90;;;;;;5086077;28;20040;-66
2022/09/17 06:39:07;;;;;;;7.32;1.17;;;10.30;99.90;;;;;;5090801;28;20046;-66
2022/09/17 06:41:33;;;;;;;5.65;1.30;;;10.20;99.90;;;;;;5098776;28;20045;-66
2022/09/17 06:43:58;;;;;;;14.48;2.38;;;10.30;99.90;;;;;;5093827;28;20044;-66
2022/09/17 06:46:24;;;;;;;8.38;1.50;;;10.20;99.90;;;;;;5090934;28;20098;-66
2022/09/17 06:48:50;;;;;;;6.43;1.20;;;10.20;99.90;;;;;;5094717;28;20059;-66
2022/09/17 06:51:16;;;;;;;5.25;1.80;;;10.20;99.90;;;;;;5083223;28;20044;-66
2022/09/17 06:53:42;;;;;;;5.22;1.10;;;10.20;99.90;;;;;;5088698;28;20048;-66
2022/09/17 06:56:09;;;;;;;7.30;1.35;;;10.20;99.90;;;;;;5086034;28;20044;-66
2022/09/17 06:58:40;;;;;;;9.23;1.40;;;10.20;99.90;;;;;;5095434;28;20052;-66
2022/09/17 07:01:06;;;;;;;8.45;1.80;;;10.10;99.90;;;;;;5096701;28;20059;-66
2022/09/17 07:03:33;;;;;;;13.90;1.88;;;10.00;99.90;;;;;;5087232;28;20052;-66
2022/09/17 07:05:59;;;;;;;9.15;1.55;;;10.10;99.90;;;;;;5086596;28;20079;-66
2022/09/17 07:08:25;;;;;;;7.70;1.63;;;10.10;99.90;;;;;;5096219;28;20073;-66
2022/09/17 07:10:55;;;;;;;7.50;2.08;;;10.20;99.90;;;;;;5091128;28;20095;-66
2022/09/17 07:13:21;;;;;;;7.05;1.40;;;10.40;99.90;;;;;;5094038;28;20385;-66
2022/09/17 07:15:57;;;;;;;6.70;1.50;;;10.50;99.90;;;;;;5087648;28;20047;-66
2022/09/17 07:18:23;;;;;;;7.22;1.48;;;10.60;99.90;;;;;;5098426;28;20395;-65
2022/09/17 07:20:57;;;;;;;8.68;1.30;;;10.60;99.90;;;;;;5080029;28;20091;-66
2022/09/17 07:23:25;;;;;;;8.13;1.83;;;10.50;99.90;;;;;;5089261;28;20048;-66
2022/09/17 07:25:56;;;;;;;7.88;1.30;;;10.60;99.90;;;;;;5099808;28;20040;-66
2022/09/17 07:28:23;;;;;;;14.68;1.40;;;10.60;99.90;;;;;;5091761;28;20044;-66
2022/09/17 07:30:49;;;;;;;12.38;1.98;;;10.70;99.90;;;;;;5088923;28;20052;-66
2022/09/17 07:33:17;;;;;;;8.57;2.42;;;10.80;99.90;;;;;;5073756;28;20048;-66
2022/09/17 07:35:59;;;;;;;9.65;1.42;;;10.90;99.90;;;;;;5088172;28;20127;-65
2022/09/17 07:38:25;;;;;;;12.23;2.08;;;11.00;99.90;;;;;;5088572;28;20096;-65
2022/09/17 07:41:06;;;;;;;6.25;1.25;;;11.10;99.90;;;;;;5089911;28;20043;-65
2022/09/17 07:43:34;;;;;;;12.85;2.78;;;11.20;99.90;;;;;;5089053;28;20055;-65
2022/09/17 07:46:02;;;;;;;12.18;1.73;;;11.30;99.90;;;;;;5091886;28;20048;-65
2022/09/17 07:48:29;;;;;;;10.15;1.83;;;11.40;99.90;;;;;;5085108;28;20051;-64
2022/09/17 07:50:55;;;;;;;11.98;1.80;;;11.40;99.90;;;;;;5088150;28;20043;-65
2022/09/17 07:53:21;;;;;;;7.28;1.33;;;11.30;99.90;;;;;;5091900;28;20597;-66
2022/09/17 07:55:58;;;;;;;8.38;1.95;;;11.30;99.90;;;;;;5087897;28;20046;-65
2022/09/17 07:58:30;;;;;;;9.57;1.80;;;11.40;99.90;;;;;;5087680;28;20044;-65
2022/09/17 08:01:03;;;;;;;8.43;2.08;;;11.50;99.90;;;;;;5089048;28;20440;-65
2022/09/17 08:03:29;;;;;;;9.10;1.58;;;11.60;99.90;;;;;;5091709;28;20059;-66
2022/09/17 08:06:10;;;;;;;11.63;1.48;;;11.40;99.90;;;;;;5091067;28;20048;-65
2022/09/17 08:08:38;;;;;;;6.13;1.45;;;11.40;99.90;;;;;;5095939;28;20092;-64
2022/09/17 08:11:06;;;;;;;5.25;1.80;;;11.50;99.90;;;;;;5083126;28;20051;-64
2022/09/17 08:13:32;;;;;;;8.93;2.30;;;11.70;99.90;;;;;;5090496;28;20044;-65
2022/09/17 08:16:04;;;;;;;7.07;1.38;;;11.80;99.90;;;;;;5085926;28;20036;-65
2022/09/17 08:18:30;;;;;;;7.05;1.50;;;11.80;99.90;;;;;;5088432;28;20056;-64
2022/09/17 08:21:00;;;;;;;9.77;1.90;;;11.90;99.90;;;;;;5089126;28;20131;-64
2022/09/17 08:23:26;;;;;;;;;;;12.00;99.90;;;;;;5098313;28;20747;-64
2022/09/17 08:25:57;;;;;;;9.82;1.58;;;12.20;99.90;;;;;;5089727;28;19921;-66
2022/09/17 08:28:24;;;;;;;10.68;1.30;;;12.40;99.90;;;;;;5104131;28;20028;-65
2022/09/17 08:30:50;;;;;;;10.77;1.50;;;12.50;99.90;;;;;;5097301;28;20120;-66
2022/09/17 08:33:16;;;;;;;9.30;2.03;;;12.50;99.90;;;;;;5105501;28;20063;-66
2022/09/17 08:35:52;;;;;;;9.63;1.63;;;12.50;99.90;;;;;;5094854;28;20048;-66
2022/09/17 08:38:18;;;;;;;8.27;1.40;;;12.30;99.90;;;;;;5088854;28;20043;-66
2022/09/17 08:41:13;;;;;;;7.55;1.30;;;12.00;99.90;;;;;;5100808;28;20036;-66
2022/09/17 08:43:51;;;;;;;7.68;1.40;;;11.80;99.90;;;;;;5098457;28;20063;-66
2022/09/17 08:46:17;;;;;;;13.63;1.98;;;11.70;99.90;;;;;;5086805;28;20068;-66
2022/09/17 08:48:51;;;;;;;3.90;1.20;;;11.50;99.90;;;;;;5102898;28;20051;-66
2022/09/17 08:51:47;;;;;;;7.40;1.90;;;11.40;99.90;;;;;;5092406;28;20044;-66
2022/09/17 08:54:43;;;;;;;4.93;0.90;;;11.20;99.90;;;;;;5080551;28;20104;-68
2022/09/17 08:57:30;;;;;;;4.97;0.98;;;11.20;99.90;;;;;;5046915;28;20539;-68
2022/09/17 09:00:10;;;;;;;9.55;1.77;;;11.20;99.90;;;;;;5085549;28;20413;-67
2022/09/17 09:02:54;;;;;;;6.35;1.25;;;11.30;99.90;;;;;;5081346;28;20105;-68
2022/09/17 09:05:24;;;;;;;4.88;1.20;;;11.50;99.90;;;;;;5083620;28;20060;-68
2022/09/17 09:07:55;;;;;;;7.00;1.33;;;11.60;99.90;;;;;;5088380;28;20053;-68
2022/09/17 09:10:25;;;;;;;8.93;1.30;;;11.70;99.90;;;;;;5082855;28;20059;-67
2022/09/17 09:12:51;;;;;;;;;;;11.80;99.90;;;;;;5088157;28;20110;-67
2022/09/17 09:15:26;;;;;;;8.00;1.63;;;11.80;99.90;;;;;;5089461;28;19924;-66
2022/09/17 09:17:53;;;;;;;7.50;1.63;;;12.00;99.90;;;;;;5087494;28;20084;-67
2022/09/17 09:20:31;;;;;;;6.70;1.40;;;12.30;99.90;;;;;;5086709;28;20079;-68
2022/09/17 09:23:03;;;;;;;6.18;1.30;;;12.40;99.90;;;;;;5095105;28;20052;-67
2022/09/17 09:25:36;;;;;;;10.15;2.03;;;12.30;99.90;;;;;;5087533;28;20047;-65
2022/09/17 09:28:10;;;;;;;5.78;1.33;;;12.00;99.90;;;;;;5091533;28;20044;-68
2022/09/17 09:31:05;;;;;;;8.43;1.70;;;11.90;99.90;;;;;;5090162;28;20052;-68
2022/09/17 09:33:36;;;;;;;9.40;1.63;;;11.80;99.90;;;;;;5092379;28;20052;-68
2022/09/17 09:36:05;;;;;;;10.98;2.13;;;11.80;99.90;;;;;;5067179;28;20115;-69
2022/09/17 09:38:47;;;;;;;8.73;2.03;;;11.70;99.90;;;;;;5077579;28;20559;-69
2022/09/17 09:41:18;;;;;;;8.05;1.02;;;12.00;99.90;;;;;;5064899;28;20052;-68
2022/09/17 09:44:01;;;;;;;5.72;1.20;;;12.20;99.90;;;;;;5085832;28;20048;-67
2022/09/17 09:46:41;;;;;;;9.68;2.22;;;12.30;99.90;;;;;;5083407;28;20041;-68
2022/09/17 09:49:19;;;;;;;9.93;1.30;;;12.30;99.90;;;;;;5084724;28;20051;-68
2022/09/17 09:52:17;;;;;;;9.95;1.55;;;12.10;99.90;;;;;;5077292;28;20046;-68
2022/09/17 09:55:04;;;;;;;7.90;1.75;;;12.00;99.90;;;;;;5079508;28;20052;-68
2022/09/17 09:57:47;;;;;;;9.93;1.58;;;12.00;99.90;;;;;;5062124;28;20785;-67
2022/09/17 10:00:36;;;;;;;7.65;1.58;;;12.10;99.90;;;;;;5090121;28;20443;-68
2022/09/17 10:03:11;;;;;;;12.95;1.50;;;12.30;99.90;;;;;;5076252;28;20052;-67
2022/09/17 10:06:01;;;;;;;8.52;1.70;;;12.40;99.90;;;;;;5109615;27;2284264;-68
2022/09/17 10:08:30;;;;;;;7.82;1.48;;;12.50;99.90;;;;;;5099928;27;20032;-68
2022/09/17 10:11:19;;;;;;;7.53;1.52;;;12.30;99.90;;;;;;5088401;28;20208;-69
2022/09/17 10:13:45;;;;;;;5.70;1.40;;;12.20;99.90;;;;;;5101778;28;20083;-68
2022/09/17 10:16:19;;;;;;;9.43;1.45;;;11.90;99.90;;;;;;5105464;28;20490;-68
2022/09/17 10:18:47;;;;;;;7.65;1.92;;;11.80;99.90;;;;;;5092216;28;20056;-68
2022/09/17 10:21:30;;;;;;;8.57;1.10;;;11.90;99.90;;;;;;5109239;28;20052;-68
2022/09/17 10:23:56;;;;;;;8.40;1.38;;;11.90;99.90;;;;;;5098598;28;20063;-68
2022/09/17 10:26:30;;;;;;;9.10;1.50;;;12.10;99.90;;;;;;5111303;28;20127;-68
2022/09/17 10:29:02;;;;;;;11.07;1.35;;;12.30;99.90;;;;;;5114411;28;20051;-68
2022/09/17 10:31:52;;;;;;;8.23;1.40;;;12.60;99.90;;;;;;5100473;28;20060;-68
2022/09/17 10:34:31;;;;;;;11.77;1.55;;;12.80;99.90;;;;;;5086530;28;20130;-67
2022/09/17 10:36:57;;;;;;;6.40;1.33;;;13.00;99.90;;;;;;5097012;28;20097;-68
2022/09/17 10:39:26;;;;;;;10.98;1.63;;;13.00;99.90;;;;;;5093691;28;20100;-68
2022/09/17 10:42:16;;;;;;;6.95;1.50;;;13.10;99.90;;;;;;5087163;28;20594;-68
2022/09/17 10:44:59;;;;;;;11.25;1.52;;;13.40;99.90;;;;;;5098118;28;20105;-67
2022/09/17 10:47:34;;;;;;;10.80;1.50;;;13.40;99.90;;;;;;5088308;28;20058;-67
2022/09/17 10:50:15;;;;;;;9.05;1.63;;;13.40;99.90;;;;;;5102167;28;20044;-67
2022/09/17 10:52:48;;;;;;;7.18;1.20;;;13.70;99.90;;;;;;5091065;28;20080;-67
2022/09/17 10:55:28;;;;;;;8.80;2.05;;;13.70;99.90;;;;;;5104835;28;20087;-68
2022/09/17 10:58:06;;;;;;;9.77;1.63;;;13.60;99.90;;;;;;5085448;28;20044;-68
2022/09/17 11:00:56;;;;;;;8.68;1.75;;;13.20;99.90;;;;;;5102304;28;20104;-69
2022/09/17 11:03:41;;;;;;;9.07;1.42;;;13.10;99.90;;;;;;5106268;28;20051;-68
2022/09/17 11:06:31;;;;;;;10.40;2.00;;;12.60;99.90;;;;;;5111499;28;20056;-68
2022/09/17 11:09:15;;;;;;;11.05;1.77;;;12.30;99.90;;;;;;5118485;28;20588;-67
2022/09/17 11:12:03;;;;;;;7.45;1.65;;;12.20;99.90;;;;;;5110959;28;20079;-67
2022/09/17 11:14:47;;;;;;;9.88;1.95;;;12.20;99.90;;;;;;5101849;28;20047;-67
2022/09/17 11:17:42;;;;;;;10.65;2.40;;;12.20;99.90;;;;;;5089581;28;20048;-68
2022/09/17 11:20:25;;;;;;;8.88;1.55;;;12.40;99.90;;;;;;5095842;28;20078;-69
2022/09/17 11:23:06;;;;;;;9.00;1.63;;;12.60;99.90;;;;;;5085581;28;20055;-69
2022/09/17 11:25:51;;;;;;;6.32;1.33;;;12.70;99.90;;;;;;5097890;28;20130;-70
2022/09/17 11:28:50;;;;;;;6.20;1.80;;;12.70;99.90;;;;;;5091113;28;20062;-69
2022/09/17 11:31:44;;;;;;;9.98;1.83;;;12.50;99.90;;;;;;5099945;28;20044;-69
2022/09/17 11:34:34;;;;;;;8.52;1.40;;;12.40;99.90;;;;;;5089821;28;20162;-69
2022/09/17 11:37:18;;;;;;;;;;;12.40;99.90;;;;;;5089014;28;20036;-68
2022/09/17 11:40:05;;;;;;;12.63;2.63;;;12.50;99.90;;;;;;5098794;28;19945;-69
2022/09/17 11:42:44;;;;;;;4.88;1.30;;;12.70;99.90;;;;;;5093438;27;20056;-69
2022/09/17 11:45:25;;;;;;;7.65;1.17;;;12.90;99.90;;;;;;5089432;28;20444;-68
2022/09/17 11:48:02;;;;;;;6.53;1.10;;;13.10;99.90;;;;;;5089620;28;20513;-68
2022/09/17 11:50:34;;;;;;;7.47;1.38;;;13.30;99.90;;;;;;5097424;28;20044;-68
2022/09/17 11:53:22;;;;;;;6.43;1.35;;;13.10;99.90;;;;;;5100581;27;20047;-68
2022/09/17 11:56:02;;;;;;;8.13;1.60;;;13.00;99.90;;;;;;5084782;28;20633;-69
2022/09/17 11:58:43;;;;;;;7.63;1.58;;;12.80;99.90;;;;;;5069582;28;20056;-69
2022/09/17 12:01:35;;;;;;;7.68;1.90;;;12.90;99.90;;;;;;5100654;28;20040;-67
2022/09/17 12:04:23;;;;;;;11.68;2.17;;;13.20;99.90;;;;;;5087509;28;20055;-69
2022/09/17 12:06:56;;;;;;;11.77;2.10;;;13.20;99.90;;;;;;5098557;28;20142;-68
2022/09/17 12:09:27;;;;;;;9.88;2.03;;;13.30;99.90;;;;;;5084338;28;20126;-68
2022/09/17 12:12:06;;;;;;;8.65;1.67;;;13.50;99.90;;;;;;5096501;28;20059;-68
2022/09/17 12:14:48;;;;;;;9.25;2.03;;;13.50;99.90;;;;;;5069994;28;20044;-68
2022/09/17 12:17:27;;;;;;;13.18;2.65;;;13.70;99.90;;;;;;5088409;28;20067;-69
2022/09/17 12:20:08;;;;;;;10.10;1.60;;;13.80;99.90;;;;;;5094785;28;20032;-69
2022/09/17 12:22:40;;;;;;;13.43;2.13;;;14.10;99.90;;;;;;5099910;28;20055;-69
2022/09/17 12:25:11;;;;;;;11.73;2.10;;;14.30;99.90;;;;;;5093783;28;20104;-69
2022/09/17 12:27:44;;;;;;;10.63;2.17;;;14.30;99.90;;;;;;5088235;28;20051;-70
2022/09/17 12:30:20;;;;;;;13.00;2.13;;;14.10;99.90;;;;;;5109830;28;20040;-70
2022/09/17 12:32:49;;;;;;;10.55;2.58;;;13.90;99.90;;;;;;5090850;28;20056;-68
2022/09/17 12:35:54;;;;;;;7.18;2.20;;;13.70;99.90;;;;;;5091717;28;20063;-69
2022/09/17 12:38:43;;;;;;;13.15;2.35;;;13.90;99.90;;;;;;5087359;28;20065;-69
2022/09/17 12:41:46;;;;;;;12.82;2.42;;;14.00;99.90;;;;;;5095183;28;20096;-69
2022/09/17 12:44:34;;;;;;;13.32;2.10;;;14.30;99.90;;;;;;5087172;28;20093;-69
2022/09/17 12:47:18;;;;;;;8.70;2.30;;;14.50;99.90;;;;;;5096248;28;20065;-67
2022/09/17 12:50:02;;;;;;;9.10;1.48;;;14.70;99.90;;;;;;5084095;28;20044;-72
2022/09/17 12:52:37;;;;;;;14.40;2.53;;;14.90;99.90;;;;;;5091875;27;20053;-69
2022/09/17 12:55:12;;;;;;;10.52;2.10;;;15.20;99.90;;;;;;5101092;28;20115;-70
2022/09/17 12:58:01;;;;;;;12.48;2.13;;;15.30;99.90;;;;;;5079761;28;20550;-70
2022/09/17 13:00:27;;;;;;;12.20;2.30;;;15.50;99.90;;;;;;5101040;28;20079;-71
2022/09/17 13:03:01;;;;;;;10.95;1.73;;;15.50;99.90;;;;;;5094523;28;20147;-71
2022/09/17 13:05:36;;;;;;;13.10;2.60;;;15.40;99.90;;;;;;5093835;28;20523;-70
2022/09/17 13:08:42;;;;;;;10.73;2.03;;;15.20;99.90;;;;;;5090275;28;20043;-69
2022/09/17 13:11:46;;;;;;;8.60;1.98;;;15.20;99.90;;;;;;5097592;28;20511;-69
2022/09/17 13:14:13;;;;;;;10.10;1.73;;;15.50;99.90;;;;;;5042952;28;20422;-70
2022/09/17 13:16:47;;;;;;;11.85;2.22;;;15.90;99.90;;;;;;5032458;28;20104;-71